createdAt,value
2023-03-06T00:01:28.832Z,47.40
2023-03-06T00:04:00.647Z,42.10
2023-03-06T00:06:32.756Z,45.30
2023-03-06T00:09:04.758Z,44.00
2023-03-06T00:11:37.170Z,41.60
2023-03-06T00:14:08.919Z,39.90
2023-03-06T00:16:40.584Z,40.70
2023-03-06T00:19:12.356Z,24.80
2023-03-06T00:21:44.646Z,36.20
2023-03-06T00:24:16.876Z,35.00
2023-03-06T00:26:48.615Z,35.40
2023-03-06T00:29:20.888Z,39.40
2023-03-06T00:31:52.567Z,35.00
2023-03-06T00:34:24.696Z,41.70
2023-03-06T00:36:56.464Z,41.10
2023-03-06T00:39:28.206Z,39.10
2023-03-06T00:41:59.955Z,34.10
2023-03-06T00:44:31.872Z,38.00
2023-03-06T00:47:03.639Z,37.00
2023-03-06T00:49:36.547Z,36.90
2023-03-06T00:54:39.557Z,35.60
2023-03-06T00:59:42.474Z,38.10
2023-03-06T01:02:15.108Z,58.40
2023-03-06T01:07:17.633Z,39.40
2023-03-06T01:09:49.417Z,29.50
2023-03-06T01:12:23.400Z,42.70
2023-03-06T01:14:55.940Z,48.90
2023-03-06T01:17:27.705Z,46.40
2023-03-06T01:19:59.615Z,32.50
2023-03-06T01:22:31.488Z,43.90
2023-03-06T01:25:04.917Z,40.30
2023-03-06T01:27:36.852Z,33.80
2023-03-06T01:30:10.651Z,42.40
2023-03-06T01:32:43.139Z,33.70
2023-03-06T01:35:15.449Z,43.20
2023-03-06T01:37:47.135Z,35.10
2023-03-06T01:40:18.845Z,30.00
2023-03-06T01:42:52.231Z,31.00
2023-03-06T01:45:58.744Z,35.20
2023-03-06T01:48:30.504Z,33.50
2023-03-06T01:51:02.586Z,39.90
2023-03-06T01:53:35.069Z,48.30
2023-03-06T01:58:39.100Z,47.60
2023-03-06T02:01:12.596Z,42.10
2023-03-06T02:03:46.554Z,38.50
2023-03-06T02:06:21.671Z,50.80
2023-03-06T02:08:55.286Z,43.50
2023-03-06T02:11:27.410Z,46.20
2023-03-06T02:13:59.388Z,51.90
2023-03-06T02:16:34.082Z,52.00
2023-03-06T02:19:08.754Z,43.50
2023-03-06T02:21:40.759Z,49.40
2023-03-06T02:24:25.201Z,42.70
2023-03-06T02:27:00.113Z,46.30
2023-03-06T02:29:33.291Z,54.50
2023-03-06T02:32:07.791Z,50.30
2023-03-06T02:34:56.486Z,53.90
2023-03-06T02:37:30.162Z,50.00
2023-03-06T02:40:12.217Z,46.20
2023-03-06T02:42:50.118Z,52.70
2023-03-06T02:45:27.103Z,49.00
2023-03-06T02:47:58.772Z,45.30
2023-03-06T02:50:30.824Z,49.90
2023-03-06T02:53:02.895Z,42.00
2023-03-06T02:55:36.631Z,48.30
2023-03-06T02:58:09.146Z,44.10
2023-03-06T03:00:41.186Z,45.10
2023-03-06T03:03:13.980Z,48.20
2023-03-06T03:05:46.139Z,44.80
2023-03-06T03:08:24.375Z,39.00
2023-03-06T03:10:59.722Z,43.50
2023-03-06T03:13:34.661Z,47.20
2023-03-06T03:18:39.058Z,54.60
2023-03-06T03:21:13.548Z,49.00
2023-03-06T03:23:46.215Z,44.60
2023-03-06T03:26:20.072Z,42.20
2023-03-06T03:29:04.956Z,43.70
2023-03-06T03:31:36.797Z,41.80
2023-03-06T03:34:08.703Z,43.00
2023-03-06T03:36:42.671Z,40.20
2023-03-06T03:41:45.916Z,37.30
2023-03-06T03:44:18.021Z,35.90
2023-03-06T03:46:50.218Z,34.30
2023-03-06T03:49:25.148Z,45.90
2023-03-06T03:51:57.915Z,44.20
2023-03-06T03:54:30.255Z,43.50
2023-03-06T03:57:02.417Z,41.60
2023-03-06T03:59:37.551Z,38.30
2023-03-06T04:02:32.812Z,34.30
2023-03-06T04:05:14.592Z,36.20
2023-03-06T04:07:46.702Z,34.10
2023-03-06T04:10:19.337Z,35.50
2023-03-06T04:12:52.831Z,33.00
2023-03-06T04:17:55.188Z,32.40
2023-03-06T04:20:29.277Z,35.20
2023-03-06T04:23:01.767Z,43.40
2023-03-06T04:25:34.015Z,34.00
2023-03-06T04:28:08.988Z,40.30
2023-03-06T04:30:41.097Z,37.60
2023-03-06T04:33:13.191Z,35.40
2023-03-06T04:35:45.826Z,31.70
2023-03-06T04:38:21.557Z,34.90
2023-03-06T04:40:53.310Z,34.70
2023-03-06T04:43:25.834Z,38.60
2023-03-06T04:45:58.879Z,31.50
2023-03-06T04:48:30.855Z,31.90
2023-03-06T04:51:02.568Z,32.80
2023-03-06T04:53:34.284Z,26.70
2023-03-06T04:56:07.233Z,34.20
2023-03-06T04:58:39.252Z,26.30
2023-03-06T05:01:11.314Z,28.20
2023-03-06T05:03:43.177Z,32.10
2023-03-06T05:06:14.966Z,27.40
2023-03-06T05:08:46.860Z,27.70
2023-03-06T05:11:18.576Z,20.50
2023-03-06T05:13:50.429Z,20.20
2023-03-06T05:16:22.165Z,15.30
2023-03-06T05:18:53.936Z,16.10
2023-03-06T05:21:25.640Z,20.40
2023-03-06T05:23:57.386Z,13.30
2023-03-06T05:26:29.193Z,15.10
2023-03-06T05:29:01.296Z,13.30
2023-03-06T05:31:33.269Z,13.20
2023-03-06T05:34:05.162Z,11.40
2023-03-06T05:36:36.894Z,9.20
2023-03-06T05:39:08.759Z,10.90
2023-03-06T05:41:40.498Z,11.50
2023-03-06T05:44:12.683Z,8.40
2023-03-06T05:46:44.433Z,9.60
2023-03-06T05:49:16.417Z,9.30
2023-03-06T05:51:48.181Z,16.50
2023-03-06T05:54:19.873Z,9.40
2023-03-06T05:56:52.571Z,10.50
2023-03-06T05:59:28.041Z,9.70
2023-03-06T06:02:01.161Z,11.40
2023-03-06T06:04:33.234Z,9.80
2023-03-06T06:07:05.924Z,8.50
2023-03-06T06:09:38.120Z,8.00
2023-03-06T06:12:10.892Z,12.60
2023-03-06T06:14:43.140Z,8.60
2023-03-06T06:17:16.554Z,4.70
2023-03-06T06:19:48.518Z,7.80
2023-03-06T06:22:20.246Z,12.00
2023-03-06T06:24:52.189Z,7.20
2023-03-06T06:27:24.030Z,5.40
2023-03-06T06:29:55.975Z,6.40
2023-03-06T06:32:28.011Z,5.30
2023-03-06T06:35:00.008Z,6.40
2023-03-06T06:37:32.603Z,5.00
2023-03-06T06:40:04.606Z,4.80
2023-03-06T06:42:39.896Z,7.40
2023-03-06T06:45:13.863Z,5.30
2023-03-06T06:47:46.450Z,4.90
2023-03-06T06:52:48.512Z,7.30
2023-03-06T06:55:20.349Z,6.90
2023-03-06T06:57:52.437Z,2.50
2023-03-06T07:00:25.967Z,4.60
2023-03-06T07:02:58.029Z,8.10
2023-03-06T07:05:29.872Z,6.70
2023-03-06T07:08:01.818Z,4.90
2023-03-06T07:10:33.699Z,3.20
2023-03-06T07:13:06.297Z,10.70
2023-03-06T07:15:38.076Z,6.50
2023-03-06T07:18:09.889Z,5.00
2023-03-06T07:20:41.770Z,11.00
2023-03-06T07:23:15.205Z,8.50
2023-03-06T07:25:46.984Z,15.60
2023-03-06T07:28:19.734Z,11.90
2023-03-06T07:33:23.157Z,13.10
2023-03-06T07:35:55.207Z,14.30
2023-03-06T07:38:26.982Z,19.10
2023-03-06T07:40:58.752Z,14.70
2023-03-06T07:43:30.598Z,15.60
2023-03-06T07:46:06.534Z,18.30
2023-03-06T07:48:39.038Z,26.30
2023-03-06T07:53:43.317Z,22.70
2023-03-06T07:56:15.445Z,16.80
2023-03-06T07:58:48.874Z,21.10
2023-03-06T08:01:23.658Z,19.80
2023-03-06T08:03:56.038Z,11.70
2023-03-06T08:06:28.928Z,13.00
2023-03-06T08:11:33.284Z,5.20
2023-03-06T08:14:05.579Z,5.20
2023-03-06T08:16:37.497Z,6.80
2023-03-06T08:19:10.028Z,9.90
2023-03-06T08:21:42.362Z,8.20
2023-03-06T08:24:16.523Z,12.40
2023-03-06T08:26:48.616Z,8.50
2023-03-06T08:29:20.662Z,10.90
2023-03-06T08:31:52.843Z,9.50
2023-03-06T08:34:26.273Z,11.20
2023-03-06T08:36:58.185Z,12.60
2023-03-06T08:39:30.683Z,12.40
2023-03-06T08:44:48.744Z,12.60
2023-03-06T08:47:21.425Z,13.60
2023-03-06T08:52:23.469Z,11.40
2023-03-06T08:54:55.560Z,12.20
2023-03-06T08:57:27.451Z,15.70
2023-03-06T09:00:04.806Z,12.00
2023-03-06T09:02:40.338Z,11.70
2023-03-06T09:05:13.235Z,13.20
2023-03-06T09:10:18.424Z,12.40
2023-03-06T09:12:53.098Z,12.00
2023-03-06T09:15:27.187Z,30.60
2023-03-06T09:20:29.807Z,22.10
2023-03-06T09:23:01.806Z,15.80
2023-03-06T09:25:33.640Z,14.90
2023-03-06T09:28:11.610Z,18.90
2023-03-06T09:30:44.499Z,17.70
2023-03-06T09:33:17.004Z,28.70
2023-03-06T09:35:51.974Z,22.00
2023-03-06T09:38:26.807Z,20.10
2023-03-06T09:41:09.698Z,26.50
2023-03-06T09:47:00.093Z,28.40
2023-03-06T09:49:45.897Z,25.40
2023-03-06T09:52:31.785Z,22.80
2023-03-06T09:55:12.566Z,26.70
2023-03-06T09:57:53.476Z,24.20
2023-03-06T10:00:31.192Z,22.70
2023-03-06T10:03:17.222Z,23.00
2023-03-06T10:05:56.146Z,25.20
2023-03-06T10:08:35.820Z,27.90
2023-03-06T10:11:11.060Z,31.50
2023-03-06T10:13:46.906Z,30.20
2023-03-06T10:16:27.840Z,33.50
2023-03-06T10:19:04.451Z,35.60
2023-03-06T10:21:44.806Z,39.30
2023-03-06T10:24:31.500Z,36.60
2023-03-06T10:27:12.925Z,34.50
2023-03-06T10:30:02.833Z,40.80
2023-03-06T10:32:49.140Z,38.40
2023-03-06T10:35:30.527Z,39.30
2023-03-06T10:38:19.682Z,42.20
2023-03-06T10:41:09.759Z,44.40
2023-03-06T10:43:43.558Z,37.90
2023-03-06T10:46:28.000Z,39.60
2023-03-06T10:49:02.637Z,45.30
2023-03-06T10:51:35.578Z,36.60
2023-03-06T10:56:51.314Z,38.90
2023-03-06T10:59:25.687Z,39.30
2023-03-06T11:02:14.672Z,38.30
2023-03-06T11:04:52.462Z,34.40
2023-03-06T11:07:26.356Z,33.10
2023-03-06T11:10:18.029Z,38.80
2023-03-06T11:13:00.532Z,34.00
2023-03-06T11:15:33.047Z,37.30
2023-03-06T11:18:23.634Z,34.40
2023-03-06T11:20:56.596Z,36.20
2023-03-06T11:23:38.414Z,41.30
2023-03-06T11:26:31.046Z,36.10
2023-03-06T11:29:13.165Z,35.30
2023-03-06T11:31:52.240Z,31.50
2023-03-06T11:34:32.816Z,31.10
2023-03-06T11:37:11.708Z,30.00
2023-03-06T11:39:50.774Z,28.80
2023-03-06T11:42:27.502Z,27.90
2023-03-06T11:45:10.207Z,28.70
2023-03-06T11:47:45.447Z,27.80
2023-03-06T11:50:23.047Z,26.80
2023-03-06T11:52:58.142Z,24.80
2023-03-06T11:55:40.686Z,28.80
2023-03-06T11:58:51.266Z,24.60
2023-03-06T12:01:33.835Z,28.90
2023-03-06T12:04:34.097Z,30.50
2023-03-06T12:07:20.793Z,27.50
2023-03-06T12:13:08.100Z,22.70
2023-03-06T12:15:59.787Z,25.20
2023-03-06T12:18:43.974Z,24.20
2023-03-06T12:21:26.614Z,21.70
2023-03-06T12:24:11.011Z,20.50
2023-03-06T12:27:10.014Z,21.60
2023-03-06T12:30:05.058Z,19.90
2023-03-06T12:32:49.525Z,22.70
2023-03-06T12:35:36.933Z,21.00
2023-03-06T12:38:25.889Z,17.00
2023-03-06T12:41:18.194Z,17.00
2023-03-06T12:44:07.313Z,16.90
2023-03-06T12:46:44.568Z,14.60
2023-03-06T12:49:32.080Z,16.00
2023-03-06T12:52:08.894Z,16.70
2023-03-06T12:54:43.804Z,22.20
2023-03-06T12:59:51.030Z,16.70
2023-03-06T13:05:28.320Z,13.60
2023-03-06T13:08:31.083Z,16.40
2023-03-06T13:11:31.694Z,17.10
2023-03-06T13:14:25.323Z,17.80
2023-03-06T13:17:17.290Z,20.90
2023-03-06T13:19:49.695Z,19.00
2023-03-06T13:22:31.026Z,16.30
2023-03-06T13:25:39.019Z,19.20
2023-03-06T13:28:26.018Z,18.20
2023-03-06T13:30:57.860Z,19.90
2023-03-06T13:33:53.362Z,16.50
2023-03-06T13:36:31.413Z,18.00
2023-03-06T13:39:19.656Z,23.50
2023-03-06T13:42:01.428Z,18.20
2023-03-06T13:44:53.035Z,22.70
2023-03-06T13:47:55.743Z,18.90
2023-03-06T13:50:35.514Z,19.60
2023-03-06T13:53:25.065Z,17.80
2023-03-06T13:56:12.892Z,15.30
2023-03-06T13:58:59.313Z,20.50
2023-03-06T14:01:43.123Z,13.70
2023-03-06T14:04:37.149Z,15.40
2023-03-06T14:07:28.042Z,17.20
2023-03-06T14:10:20.186Z,26.70
2023-03-06T14:13:05.321Z,34.60
2023-03-06T14:15:45.145Z,27.10
2023-03-06T14:18:21.287Z,16.90
2023-03-06T14:20:58.638Z,12.20
2023-03-06T14:23:35.208Z,16.30
2023-03-06T14:26:15.189Z,14.60
2023-03-06T14:28:56.511Z,13.80
2023-03-06T14:31:34.602Z,14.30
2023-03-06T14:34:08.221Z,15.20
2023-03-06T14:36:46.457Z,18.40
2023-03-06T14:39:23.794Z,22.40
2023-03-06T14:42:07.876Z,16.20
2023-03-06T14:44:40.838Z,16.90
2023-03-06T14:47:24.537Z,18.30
2023-03-06T14:50:21.627Z,16.80
2023-03-06T14:52:57.562Z,18.60
2023-03-06T14:55:31.447Z,14.60
2023-03-06T14:58:08.886Z,18.90
2023-03-06T15:00:44.574Z,19.40
2023-03-06T15:03:21.361Z,26.60
2023-03-06T15:05:53.918Z,16.70
2023-03-06T15:08:30.057Z,17.60
2023-03-06T15:11:03.983Z,15.30
2023-03-06T15:13:36.508Z,14.80
2023-03-06T15:16:23.425Z,17.70
2023-03-06T15:19:00.179Z,15.00
2023-03-06T15:21:36.399Z,16.60
2023-03-06T15:24:32.438Z,21.80
2023-03-06T15:27:06.677Z,13.80
2023-03-06T15:29:40.967Z,16.50
2023-03-06T15:32:33.491Z,15.40
2023-03-06T15:35:30.347Z,17.70
2023-03-06T15:38:03.089Z,16.50
2023-03-06T15:40:35.611Z,15.50
2023-03-06T15:43:12.861Z,16.10
2023-03-06T15:45:44.793Z,21.80
2023-03-06T15:48:19.624Z,17.90
2023-03-06T15:50:51.525Z,21.90
2023-03-06T15:53:23.621Z,17.20
2023-03-06T15:55:55.888Z,19.20
2023-03-06T15:58:30.488Z,16.10
2023-03-06T16:01:04.025Z,15.40
2023-03-06T16:03:36.085Z,16.10
2023-03-06T16:06:10.566Z,24.30
2023-03-06T16:08:42.329Z,15.70
2023-03-06T16:11:18.144Z,13.70
2023-03-06T16:13:49.880Z,19.10
2023-03-06T16:16:25.614Z,18.80
2023-03-06T16:18:57.890Z,16.60
2023-03-06T16:21:29.992Z,16.30
2023-03-06T16:24:02.572Z,18.40
2023-03-06T16:26:36.270Z,20.30
2023-03-06T16:29:08.466Z,24.30
2023-03-06T16:31:44.644Z,23.20
2023-03-06T16:34:17.613Z,19.90
2023-03-06T16:36:50.269Z,17.70
2023-03-06T16:39:24.055Z,21.60
2023-03-06T16:41:56.337Z,22.10
2023-03-06T16:44:28.271Z,18.80
2023-03-06T16:47:02.999Z,18.60
2023-03-06T16:49:39.512Z,24.90
2023-03-06T16:52:14.561Z,28.60
2023-03-06T16:54:46.586Z,30.20
2023-03-06T16:57:18.492Z,30.10
2023-03-06T16:59:51.442Z,26.50
2023-03-06T17:02:23.815Z,29.20
2023-03-06T17:07:29.420Z,26.70
2023-03-06T17:10:01.970Z,30.30
2023-03-06T17:15:06.012Z,29.40
2023-03-06T17:17:38.943Z,33.80
2023-03-06T17:20:17.561Z,31.90
2023-03-06T17:22:50.060Z,26.60
2023-03-06T17:25:22.445Z,27.80
2023-03-06T17:27:54.385Z,29.80
2023-03-06T17:30:26.842Z,27.70
2023-03-06T17:35:30.577Z,30.90
2023-03-06T17:38:03.743Z,36.50
2023-03-06T17:40:36.258Z,32.60
2023-03-06T17:43:08.549Z,35.60
2023-03-06T17:45:41.150Z,43.20
2023-03-06T17:48:13.587Z,42.10
2023-03-06T17:50:53.261Z,40.50
2023-03-06T17:53:25.407Z,42.70
2023-03-06T17:55:58.126Z,40.80
2023-03-06T17:58:30.010Z,45.00
2023-03-06T18:01:02.050Z,44.30
2023-03-06T18:03:34.207Z,48.30
2023-03-06T18:06:09.358Z,53.80
2023-03-06T18:08:41.783Z,55.00
2023-03-06T18:11:15.799Z,48.40
2023-03-06T18:14:05.542Z,50.10
2023-03-06T18:16:39.096Z,49.90
2023-03-06T18:19:12.591Z,49.00
2023-03-06T18:21:47.358Z,52.40
2023-03-06T18:24:19.827Z,47.80
2023-03-06T18:26:52.285Z,39.10
2023-03-06T18:29:24.300Z,44.20
2023-03-06T18:31:58.732Z,48.90
2023-03-06T18:34:30.740Z,44.40
2023-03-06T18:37:02.643Z,48.10
2023-03-06T18:39:34.691Z,32.00
2023-03-06T18:42:07.465Z,50.50
2023-03-06T18:44:39.654Z,57.20
2023-03-06T18:47:12.277Z,44.40
2023-03-06T18:52:19.835Z,44.50
2023-03-06T18:54:53.507Z,48.70
2023-03-06T18:57:25.680Z,53.30
2023-03-06T18:59:58.433Z,53.90
2023-03-06T19:02:31.550Z,49.40
2023-03-06T19:05:04.685Z,52.60
2023-03-06T19:07:37.783Z,50.80
2023-03-06T19:10:12.212Z,48.60
2023-03-06T19:12:44.965Z,54.30
2023-03-06T19:15:17.787Z,56.20
2023-03-06T19:17:52.244Z,56.60
2023-03-06T19:20:26.060Z,56.00
2023-03-06T19:22:58.319Z,58.70
2023-03-06T19:25:30.493Z,57.50
2023-03-06T19:28:02.951Z,60.80
2023-03-06T19:30:34.905Z,66.00
2023-03-06T19:33:12.934Z,49.00
2023-03-06T19:44:31.371Z,79.50
2023-03-06T19:48:34.301Z,77.60
2023-03-06T19:51:10.221Z,89.30
2023-03-06T19:53:42.868Z,84.40
2023-03-06T19:56:20.945Z,89.70
2023-03-06T19:58:56.382Z,101.40
2023-03-06T20:01:35.252Z,90.60
2023-03-06T20:04:09.394Z,87.20
2023-03-06T20:06:54.044Z,86.50
2023-03-06T20:09:26.994Z,80.20
2023-03-06T20:11:59.545Z,78.30
2023-03-06T20:17:02.742Z,67.80
2023-03-06T20:19:35.291Z,78.00
2023-03-06T20:22:07.293Z,81.80
2023-03-06T20:24:39.496Z,70.60
2023-03-06T20:27:11.741Z,79.10
2023-03-06T20:29:45.629Z,59.40
2023-03-06T20:32:17.739Z,80.60
2023-03-06T20:34:50.330Z,83.20
2023-03-06T20:37:22.342Z,90.00
2023-03-06T20:39:54.244Z,101.00
2023-03-06T20:42:26.333Z,95.90
2023-03-06T20:45:01.137Z,108.80
2023-03-06T20:47:33.214Z,105.40
2023-03-06T20:50:05.405Z,102.70
2023-03-06T20:52:37.294Z,117.30
2023-03-06T20:55:10.711Z,102.70
2023-03-06T20:57:43.243Z,97.90
2023-03-06T21:00:19.041Z,95.30
2023-03-06T21:02:51.108Z,88.20
2023-03-06T21:05:23.405Z,106.70
2023-03-06T21:07:56.557Z,89.60
2023-03-06T21:10:30.688Z,103.30
2023-03-06T21:13:02.761Z,91.20
2023-03-06T21:15:35.033Z,97.20
2023-03-06T21:18:07.839Z,98.00
2023-03-06T21:20:42.687Z,101.10
2023-03-06T21:23:15.524Z,87.50
2023-03-06T21:25:52.864Z,90.20
2023-03-06T21:28:25.223Z,86.30
2023-03-06T21:30:57.729Z,90.50
2023-03-06T21:33:30.465Z,97.70
2023-03-06T21:36:03.549Z,94.30
2023-03-06T21:38:36.753Z,86.70
2023-03-06T21:41:15.016Z,90.40
2023-03-06T21:43:47.609Z,96.30
2023-03-06T21:46:19.659Z,96.80
2023-03-06T21:48:52.156Z,94.50
2023-03-06T21:51:25.542Z,91.80
2023-03-06T21:53:58.958Z,95.10
2023-03-06T21:56:33.360Z,89.80
2023-03-06T21:59:05.518Z,91.40
2023-03-06T22:01:37.569Z,111.80
2023-03-06T22:04:09.930Z,107.30
2023-03-06T22:06:41.908Z,113.30
2023-03-06T22:09:16.068Z,112.20
2023-03-06T22:11:47.979Z,95.30
2023-03-06T22:14:19.776Z,88.40
2023-03-06T22:16:53.280Z,86.10
2023-03-06T22:19:25.074Z,77.20
2023-03-06T22:21:59.426Z,78.30
2023-03-06T22:24:31.708Z,72.60
2023-03-06T22:27:03.691Z,81.40
2023-03-06T22:29:36.071Z,84.10
2023-03-06T22:32:08.722Z,73.60
2023-03-06T22:34:40.803Z,70.30
2023-03-06T22:37:12.775Z,74.50
2023-03-06T22:39:45.093Z,75.20
2023-03-06T22:42:17.146Z,75.60
2023-03-06T22:44:49.126Z,65.80
2023-03-06T22:47:21.150Z,73.50
2023-03-06T22:49:52.896Z,85.60
2023-03-06T22:52:24.716Z,87.80
2023-03-06T22:54:56.452Z,88.20
2023-03-06T22:57:29.957Z,77.30
2023-03-06T23:00:01.904Z,97.90
2023-03-06T23:02:38.054Z,101.80
2023-03-06T23:05:11.184Z,102.50
2023-03-06T23:07:43.252Z,87.80
2023-03-06T23:10:15.330Z,83.30
2023-03-06T23:13:05.470Z,83.10
2023-03-06T23:15:56.457Z,105.20
2023-03-06T23:18:47.737Z,83.70
2023-03-06T23:21:38.054Z,118.00
2023-03-06T23:24:28.647Z,77.10
2023-03-06T23:27:00.682Z,82.80
2023-03-06T23:29:32.731Z,81.90
2023-03-06T23:32:04.878Z,82.30
2023-03-06T23:34:37.325Z,82.00
2023-03-06T23:37:09.161Z,86.20
2023-03-06T23:39:41.798Z,72.90
2023-03-06T23:42:13.727Z,98.20
2023-03-06T23:44:45.656Z,116.20
2023-03-06T23:47:20.107Z,99.00
2023-03-06T23:49:52.095Z,81.10
2023-03-06T23:52:24.203Z,82.10
2023-03-06T23:54:56.116Z,107.00
2023-03-06T23:57:27.981Z,82.30
